Time;durP1;ratioP1;P1;durP2;ratioP2;P2;SDS_P1;SDS_P2;PMS_P1;PMS_P2;Temp;Humidity;BMP_temperature;BMP_pressure;BME280_temperature;BME280_humidity;BME280_pressure;Samples;Min_cycle;Max_cycle;Signal;HPM_P1;HPM_P2
2023/01/30 00:02:48;;;;;;;2.43;2.10;;;;;;;18.24;46.28;97366.78;10384869;28;20037;-26
2023/01/30 00:07:49;;;;;;;2.93;2.07;;;;;;;18.24;44.58;97364.25;10388973;28;20553;-26
2023/01/30 00:12:49;;;;;;;3.40;2.10;;;;;;;18.08;44.71;97342.94;10384351;28;20033;-27
2023/01/30 00:17:49;;;;;;;2.60;1.80;;;;;;;18.07;44.44;97333.66;10373057;28;20041;-27
2023/01/30 00:22:50;;;;;;;2.87;2.27;;;;;;;18.06;44.47;97303.22;10396379;28;20408;-26
2023/01/30 00:27:50;;;;;;;2.67;1.90;;;;;;;18.05;44.93;97292.25;10380229;28;20505;-28
2023/01/30 00:32:57;;;;;;;2.20;1.80;;;;;;;18.01;44.47;97282.91;10380360;28;20030;-28
2023/01/30 00:37:58;;;;;;;1.63;1.50;;;;;;;18.01;45.08;97289.66;10383613;28;20120;-26
2023/01/30 00:48:17;;;;;;;2.20;1.73;;;;;;;17.98;44.63;97289.66;10376973;28;20069;-27
2023/01/30 00:53:18;;;;;;;5.18;2.70;;;;;;;17.99;44.62;97286.28;10370890;28;20579;-27
2023/01/30 00:58:18;;;;;;;2.25;1.67;;;;;;;18.03;45.57;97267.72;10393141;28;20030;-28
2023/01/30 01:03:19;;;;;;;2.78;1.55;;;;;;;18.17;45.99;97250.97;10391997;28;20065;-26
2023/01/30 01:08:21;;;;;;;2.95;2.00;;;;;;;18.18;45.47;97247.59;10382495;28;20040;-26
2023/01/30 01:13:21;;;;;;;5.32;1.63;;;;;;;18.06;45.38;97240.72;10369527;28;20040;-26
2023/01/30 01:18:22;;;;;;;2.50;1.80;;;;;;;18.00;44.96;97239.81;10367703;28;20050;-26
2023/01/30 01:23:22;;;;;;;1.73;1.63;;;;;;;17.96;44.99;97230.47;10376931;28;20493;-27
2023/01/30 01:28:23;;;;;;;2.83;2.00;;;;;;;17.97;44.52;97252.44;10376481;28;20084;-28
2023/01/30 01:33:27;;;;;;;3.37;1.70;;;;;;;17.93;44.58;97281.13;10376302;28;20488;-27
2023/01/30 01:38:28;;;;;;;2.92;1.92;;;;;;;17.92;44.70;97294.63;10384175;28;20025;-28
2023/01/30 01:43:32;;;;;;;1.90;1.70;;;;;;;17.92;44.85;97320.78;10391624;28;20034;-27
2023/01/30 01:48:40;;;;;;;3.28;1.67;;;;;;;17.87;44.68;97324.13;10374073;28;20030;-28
2023/01/30 01:53:53;;;;;;;2.47;1.70;;;;;;;17.88;44.64;97359.59;10397248;28;20033;-27
2023/01/30 01:58:58;;;;;;;2.10;1.48;;;;;;;17.89;44.56;97403.50;10378392;28;20123;-27
2023/01/30 02:04:03;;;;;;;3.38;1.90;;;;;;;18.07;45.78;97414.72;10372039;28;20470;-27
2023/01/30 02:09:07;;;;;;;3.17;1.90;;;;;;;18.08;45.65;97429.09;10393007;28;20504;-26
2023/01/30 02:14:10;;;;;;;2.85;1.80;;;;;;;18.05;44.71;97418.06;10382972;28;20444;-27
2023/01/30 02:19:24;;;;;;;1.58;1.48;;;;;;;17.92;44.28;97413.69;10366091;28;20030;-27
2023/01/30 02:24:59;;;;;;;2.50;1.50;;;;;;;17.91;44.43;97391.72;10400107;28;20026;-26
2023/01/30 02:30:19;;;;;;;1.83;1.55;;;;;;;17.86;44.49;97380.69;10366323;28;20026;-27
2023/01/30 02:35:39;;;;;;;2.35;1.60;;;;;;;17.84;44.72;97385.72;10382376;28;20038;-26
2023/01/30 02:40:53;;;;;;;2.05;1.80;;;;;;;17.85;44.76;97378.97;10377942;28;20025;-26
2023/01/30 02:46:19;;;;;;;1.65;1.50;;;;;;;17.85;44.17;97358.72;10379828;28;20125;-26
2023/01/30 02:51:24;;;;;;;2.67;1.63;;;;;;;17.82;44.42;97348.56;10364258;28;20034;-27
2023/01/30 02:56:24;;;;;;;3.10;1.65;;;;;;;17.81;44.66;97334.16;10365984;28;20093;-27
2023/01/30 03:01:28;;;;;;;3.42;1.50;;;;;;;17.81;45.14;97334.16;10372553;28;20161;-26
2023/01/30 03:07:05;;;;;;;1.73;1.33;;;;;;;17.94;45.14;97346.16;10391768;28;20033;-27
2023/01/30 03:12:24;;;;;;;2.13;1.20;;;;;;;17.99;45.73;97378.31;10381184;28;20132;-27
2023/01/30 03:17:26;;;;;;;3.67;1.80;;;;;;;17.93;43.85;97347.81;10385684;28;20116;-27
2023/01/30 03:22:27;;;;;;;2.38;1.80;;;;;;;17.78;44.71;97334.13;10372612;28;20080;-28
2023/01/30 03:27:29;;;;;;;3.22;2.15;;;;;;;17.83;44.26;97335.88;10388687;28;20033;-26
2023/01/30 03:32:30;;;;;;;1.88;1.60;;;;;;;17.81;44.80;97321.50;10381941;28;20025;-27
2023/01/30 03:37:31;;;;;;;1.60;1.50;;;;;;;17.82;44.07;97329.13;10369051;28;20523;-28
2023/01/30 03:42:31;;;;;;;2.90;1.60;;;;;;;17.88;43.61;97316.53;10388014;28;20435;-28
2023/01/30 03:47:32;;;;;;;1.88;1.65;;;;;;;17.84;43.57;97288.63;10378320;28;20392;-27
2023/01/30 03:52:34;;;;;;;2.20;2.00;;;;;;;17.79;44.15;97300.38;10395891;28;20041;-27
2023/01/30 03:57:35;;;;;;;2.70;2.10;;;;;;;17.80;44.01;97291.94;10387905;28;20116;-28
2023/01/30 04:02:37;;;;;;;2.60;1.80;;;;;;;17.71;43.49;97266.50;10380100;28;20033;-26
2023/01/30 04:07:37;;;;;;;1.90;1.52;;;;;;;17.74;43.96;97251.38;10387235;28;20022;-27
2023/01/30 04:12:38;;;;;;;3.05;1.52;;;;;;;17.95;44.64;97249.06;10387049;28;20248;-26
2023/01/30 04:17:39;;;;;;;3.28;1.67;;;;;;;17.99;44.62;97246.56;10386227;28;20025;-27
2023/01/30 04:22:42;;;;;;;1.60;1.40;;;;;;;17.87;43.75;97278.53;10392497;28;20053;-27
2023/01/30 04:27:43;;;;;;;2.58;1.70;;;;;;;17.75;43.72;97265.72;10378012;28;20034;-26
2023/01/30 04:32:51;;;;;;;2.20;2.00;;;;;;;17.72;43.74;97270.75;10373421;28;20022;-27
2023/01/30 04:37:51;;;;;;;2.60;1.95;;;;;;;17.70;43.57;97274.94;10382537;28;20520;-26
2023/01/30 04:42:53;;;;;;;1.92;1.73;;;;;;;17.71;43.49;97281.69;10393728;28;20069;-27
2023/01/30 04:48:24;;;;;;;2.28;1.90;;;;;;;17.65;43.62;97290.09;10390331;28;20042;-27
2023/01/30 04:53:25;;;;;;;2.10;1.90;;;;;;;17.70;43.83;97312.94;10408218;28;20423;-27
2023/01/30 04:58:25;;;;;;;1.48;1.38;;;;;;;17.70;43.82;97323.06;10409435;28;20037;-27
2023/01/30 05:03:26;;;;;;;2.38;2.10;;;;;;;17.75;43.54;97334.94;10407558;28;20049;-26
2023/01/30 05:08:26;;;;;;;1.60;1.50;;;;;;;17.76;42.89;97320.59;10391321;28;20115;-26
2023/01/30 05:13:27;;;;;;;2.60;2.00;;;;;;;17.89;42.52;97315.72;10404400;28;20668;-27
2023/01/30 05:18:27;;;;;;;2.00;1.80;;;;;;;18.07;43.00;97322.69;10391547;28;20556;-27
2023/01/30 05:23:28;;;;;;;2.22;1.80;;;;;;;18.09;42.80;97308.34;10403464;28;20049;-26
2023/01/30 05:28:28;;;;;;;2.23;1.67;;;;;;;17.99;42.65;97293.88;10394239;28;20037;-27
2023/01/30 05:33:29;;;;;;;2.65;1.85;;;;;;;17.93;42.41;97312.34;10398903;28;20051;-27
2023/01/30 05:38:29;;;;;;;3.72;2.20;;;;;;;17.85;42.21;97318.19;10394254;28;20488;-26
2023/01/30 05:43:30;;;;;;;4.00;2.20;;;;;;;17.91;42.44;97305.59;10377454;28;20382;-26
2023/01/30 05:48:32;;;;;;;3.75;2.22;;;;;;;17.85;41.65;97329.19;10385003;28;20038;-27
2023/01/30 05:53:36;;;;;;;2.83;2.15;;;;;;;17.84;41.62;97312.25;10379268;28;20049;-27
2023/01/30 05:58:36;;;;;;;3.47;2.50;;;;;;;17.86;42.31;97312.28;10384173;28;20022;-27
2023/01/30 06:03:37;;;;;;;10.13;3.30;;;;;;;17.86;42.93;97302.16;10376513;28;20400;-28
2023/01/30 06:08:38;;;;;;;6.53;3.05;;;;;;;17.84;43.04;97291.16;10389623;28;20407;-26
2023/01/30 06:13:39;;;;;;;6.22;2.47;;;;;;;17.82;42.96;97301.25;10375656;28;20038;-26
2023/01/30 06:18:39;;;;;;;7.22;3.00;;;;;;;17.79;42.72;97325.69;10382314;28;20729;-27
2023/01/30 06:23:40;;;;;;;7.37;2.50;;;;;;;17.95;42.87;97332.66;10379758;28;20048;-27
2023/01/30 06:28:41;;;;;;;4.97;2.50;;;;;;;18.15;40.63;97318.53;10383730;28;20374;-27
2023/01/30 06:33:44;;;;;;;5.40;3.10;;;;;;;17.57;37.23;97326.28;10382343;28;20044;-27
2023/01/30 06:38:44;;;;;;;11.45;4.00;;;;;;;17.72;36.46;97307.06;10378497;28;20032;-29
2023/01/30 06:43:44;;;;;;;8.93;3.47;;;;;;;17.61;37.27;97307.75;10389207;28;20041;-27
2023/01/30 06:48:45;;;;;;;6.60;2.90;;;;;;;17.85;37.88;97319.06;10397184;28;20381;-27
2023/01/30 06:53:45;;;;;;;8.93;3.20;;;;;;;17.96;37.85;97314.09;10387656;28;20034;-27
2023/01/30 06:58:45;;;;;;;10.35;2.35;;;;;;;17.99;37.79;97307.38;10406596;28;20033;-27
2023/01/30 07:03:47;;;;;;;3.73;1.93;;;;;;;18.01;37.86;97305.69;10388811;28;20049;-27
2023/01/30 07:08:47;;;;;;;3.42;2.40;;;;;;;18.03;37.73;97288.00;10378750;28;20320;-27
2023/01/30 07:13:48;;;;;;;3.10;2.05;;;;;;;18.04;37.80;97287.16;10391583;28;20407;-27
2023/01/30 07:18:48;;;;;;;4.80;2.30;;;;;;;18.04;37.85;97285.47;10397708;28;20072;-29
2023/01/30 07:23:48;;;;;;;2.73;2.10;;;;;;;18.05;37.32;97261.84;10374422;28;20315;-27
2023/01/30 07:28:51;;;;;;;3.37;2.27;;;;;;;18.14;38.86;97248.41;10373958;28;20040;-27
2023/01/30 07:33:51;;;;;;;3.42;1.83;;;;;;;18.14;40.62;97240.78;10390193;28;20068;-27
2023/01/30 07:38:52;;;;;;;4.77;2.00;;;;;;;18.12;39.31;97255.13;10397311;28;20466;-27
2023/01/30 07:43:52;;;;;;;2.30;2.10;;;;;;;18.10;38.04;97274.56;10383116;28;20412;-27
2023/01/30 07:48:53;;;;;;;2.40;1.87;;;;;;;18.07;37.79;97277.91;10404193;28;20044;-27
2023/01/30 07:53:53;;;;;;;2.53;2.28;;;;;;;18.06;37.51;97270.28;10394196;28;20574;-27
2023/01/30 07:58:55;;;;;;;2.00;1.80;;;;;;;18.03;37.77;97273.66;10403519;28;20463;-26
2023/01/30 08:03:55;;;;;;;2.63;1.77;;;;;;;18.04;37.90;97299.81;10428444;28;20045;-27
2023/01/30 08:08:55;;;;;;;2.50;2.15;;;;;;;18.00;38.08;97326.81;10403464;28;20445;-28
2023/01/30 08:13:56;;;;;;;2.60;2.10;;;;;;;18.03;37.23;97323.47;10405429;28;20040;-28
2023/01/30 08:18:57;;;;;;;2.27;2.07;;;;;;;17.98;37.49;97305.69;10385578;28;20188;-27
2023/01/30 08:23:57;;;;;;;2.10;1.90;;;;;;;18.01;37.58;97328.50;10388689;28;20078;-27
2023/01/30 08:28:58;;;;;;;2.60;2.03;;;;;;;18.01;37.68;97309.94;10371742;28;20554;-27
2023/01/30 08:33:58;;;;;;;2.23;2.03;;;;;;;18.05;39.91;97304.03;10388098;28;20033;-27
2023/01/30 08:38:59;;;;;;;2.10;1.90;;;;;;;18.03;41.32;97298.13;10384653;28;20025;-27
2023/01/30 08:44:01;;;;;;;5.00;1.98;;;;;;;18.03;40.87;97313.31;10387516;28;20091;-27
2023/01/30 08:49:02;;;;;;;3.38;2.55;;;;;;;17.99;39.26;97304.84;10379290;28;20053;-27
2023/01/30 08:54:02;;;;;;;3.03;1.80;;;;;;;17.95;37.93;97317.44;10385849;28;20038;-27
2023/01/30 08:59:03;;;;;;;2.08;1.88;;;;;;;17.92;37.76;97342.75;10376438;28;20049;-27
2023/01/30 09:04:03;;;;;;;2.70;2.00;;;;;;;17.94;38.93;97339.44;10378032;28;20042;-26
2023/01/30 09:09:03;;;;;;;2.13;1.95;;;;;;;17.94;37.09;97344.50;10375490;28;20033;-27
2023/01/30 09:14:04;;;;;;;2.60;1.97;;;;;;;17.92;37.46;97348.66;10386557;28;20042;-28
2023/01/30 09:19:04;;;;;;;2.00;1.80;;;;;;;17.92;37.85;97355.44;10378232;28;20479;-26
2023/01/30 09:24:08;;;;;;;2.00;1.90;;;;;;;17.92;37.09;97347.81;10382953;28;20046;-27
2023/01/30 09:29:08;;;;;;;2.47;2.22;;;;;;;17.89;36.10;97327.50;10368711;28;20160;-27
2023/01/30 09:34:09;;;;;;;2.10;1.90;;;;;;;17.86;36.08;97309.75;10380220;28;20179;-26
2023/01/30 09:39:09;;;;;;;2.17;1.90;;;;;;;17.92;36.20;97320.78;10385596;28;20038;-26
2023/01/30 09:44:31;;;;;;;1.70;1.40;;;;;;;18.00;41.05;97308.22;10393518;28;20369;-27
2023/01/30 09:49:37;;;;;;;3.58;1.88;;;;;;;17.99;41.37;97299.78;10379412;28;20473;-28
2023/01/30 09:54:41;;;;;;;2.30;2.10;;;;;;;18.03;38.34;97309.13;10400348;28;20124;-27
2023/01/30 09:59:56;;;;;;;4.40;2.20;;;;;;;17.95;36.41;97292.13;10368027;28;20476;-27
2023/01/30 10:04:58;;;;;;;2.38;1.92;;;;;;;17.92;36.16;97300.53;10392852;28;20049;-27
2023/01/30 10:10:13;;;;;;;2.28;1.90;;;;;;;17.93;36.31;97303.94;10393269;28;20317;-27
2023/01/30 10:15:30;;;;;;;2.10;1.90;;;;;;;17.87;36.58;97301.31;10385251;28;20119;-27
2023/01/30 10:20:53;;;;;;;2.40;1.73;;;;;;;17.88;36.08;97324.13;10378460;28;20115;-27
2023/01/30 10:26:04;;;;;;;2.97;1.75;;;;;;;17.91;36.03;97315.72;10384464;28;20050;-27
2023/01/30 10:31:10;;;;;;;2.45;2.08;;;;;;;17.90;35.83;97278.56;10383445;28;20113;-27
2023/01/30 10:36:15;;;;;;;2.20;2.00;;;;;;;17.92;36.08;97266.75;10389636;28;20108;-27
2023/01/30 10:41:23;;;;;;;2.92;2.15;;;;;;;17.89;36.04;97259.97;10391232;28;20457;-29
2023/01/30 10:46:59;;;;;;;1.65;1.50;;;;;;;17.91;35.92;97257.47;10392363;28;20530;-27
2023/01/30 10:52:05;;;;;;;2.45;1.80;;;;;;;17.96;41.04;97256.69;10389406;28;20048;-27
2023/01/30 10:57:14;;;;;;;1.80;1.70;;;;;;;17.97;41.00;97252.44;10385989;28;20032;-28
2023/01/30 11:02:17;;;;;;;2.10;1.70;;;;;;;17.97;37.13;97233.03;10370368;28;20030;-27
2023/01/30 11:07:17;;;;;;;2.92;2.22;;;;;;;17.89;36.51;97214.38;10379959;28;20061;-27
2023/01/30 11:12:18;;;;;;;1.83;1.70;;;;;;;17.87;35.92;97205.91;10374874;28;20049;-27
2023/01/30 11:17:27;;;;;;;2.10;1.65;;;;;;;17.85;35.86;97186.47;10375223;28;20113;-27
2023/01/30 11:22:30;;;;;;;2.00;1.80;;;;;;;17.85;35.74;97187.34;10372354;28;20396;-28
2023/01/30 11:27:33;;;;;;;1.92;1.70;;;;;;;17.82;35.67;97173.78;10377733;28;20041;-28
2023/01/30 11:32:34;;;;;;;2.38;1.83;;;;;;;17.94;36.01;97166.28;10379998;28;20113;-27
2023/01/30 11:37:39;;;;;;;3.85;2.35;;;;;;;17.69;36.42;97160.16;10391775;28;20121;-26
2023/01/30 11:42:46;;;;;;;2.08;1.85;;;;;;;17.95;36.91;97165.44;10380029;28;20038;-26
2023/01/30 11:47:58;;;;;;;2.20;1.88;;;;;;;17.99;37.17;97155.34;10393087;28;20072;-27
2023/01/30 11:53:03;;;;;;;4.45;1.70;;;;;;;18.03;37.35;97136.84;10399801;28;20573;-28
2023/01/30 11:58:08;;;;;;;3.70;1.73;;;;;;;18.07;39.70;97127.56;10396034;28;20087;-28
2023/01/30 12:03:15;;;;;;;2.95;1.98;;;;;;;18.12;39.51;97116.63;10385198;28;20064;-28
2023/01/30 12:08:18;;;;;;;3.30;1.55;;;;;;;18.17;37.71;97116.66;10380370;28;20030;-27
2023/01/30 12:13:44;;;;;;;4.38;2.25;;;;;;;17.93;37.10;97122.38;10383825;28;20033;-29
2023/01/30 12:19:00;;;;;;;2.10;1.90;;;;;;;18.05;36.81;97131.75;10382170;28;20044;-28
2023/01/30 12:24:23;;;;;;;5.82;2.00;;;;;;;18.13;36.89;97125.06;10390029;28;20377;-28
2023/01/30 12:29:49;;;;;;;2.30;1.83;;;;;;;18.12;37.17;97136.03;10400934;28;20439;-26
2023/01/30 12:34:50;;;;;;;2.60;1.57;;;;;;;18.12;37.33;97144.50;10412282;28;20032;-27
2023/01/30 12:40:15;;;;;;;2.53;2.30;;;;;;;18.08;37.16;97147.00;10391855;28;20393;-26
2023/01/30 12:45:23;;;;;;;2.10;1.58;;;;;;;18.07;37.61;97132.63;10399314;28;20038;-27
2023/01/30 12:50:45;;;;;;;2.15;1.65;;;;;;;18.08;37.51;97122.50;10399406;28;20033;-28
2023/01/30 12:56:00;;;;;;;1.95;1.35;;;;;;;18.10;36.90;97117.44;10400816;28;20041;-27
2023/01/30 13:01:21;;;;;;;1.73;1.58;;;;;;;18.10;35.89;97108.19;10398649;28;20045;-28
2023/01/30 13:06:38;;;;;;;8.10;1.73;;;;;;;18.11;38.01;97111.53;10399433;28;20435;-27
2023/01/30 13:12:09;;;;;;;7.28;1.70;;;;;;;18.08;37.66;97104.75;10378210;28;20034;-26
2023/01/30 13:17:32;;;;;;;3.13;1.90;;;;;;;18.08;37.54;97104.75;10393313;28;20034;-27
2023/01/30 13:23:01;;;;;;;4.03;1.52;;;;;;;18.08;37.27;97098.88;10390533;28;20026;-27
2023/01/30 13:28:12;;;;;;;2.38;1.48;;;;;;;17.98;37.09;97099.63;10397653;28;20049;-27
2023/01/30 13:33:20;;;;;;;4.90;1.48;;;;;;;18.02;36.92;97101.34;10397211;28;20025;-28
2023/01/30 13:38:26;;;;;;;1.90;1.35;;;;;;;18.04;37.40;97097.13;10404403;28;20036;-26
2023/01/30 13:43:38;;;;;;;1.20;1.00;;;;;;;18.05;37.14;97103.88;10399068;28;20147;-28
2023/01/30 13:48:44;;;;;;;1.63;1.00;;;;;;;17.98;37.23;97099.63;10380623;28;20030;-28
2023/01/30 13:53:57;;;;;;;2.20;1.10;;;;;;;18.03;36.91;97111.50;10379004;28;20049;-27
2023/01/30 13:59:08;;;;;;;1.30;1.20;;;;;;;17.99;36.30;97114.81;10383183;28;20498;-27
2023/01/30 14:04:40;;;;;;;1.17;1.02;;;;;;;18.00;36.58;97123.28;10387963;28;20047;-27
2023/01/30 14:09:48;;;;;;;1.42;1.23;;;;;;;18.04;40.30;97122.47;10383892;28;20332;-27
2023/01/30 14:15:01;;;;;;;1.50;1.00;;;;;;;18.02;42.44;97127.53;10377242;28;20038;-27
2023/01/30 14:20:05;;;;;;;0.98;0.75;;;;;;;18.09;39.59;97130.97;10385928;28;20104;-27
2023/01/30 14:25:21;;;;;;;1.08;0.90;;;;;;;18.01;37.42;97132.59;10396460;28;20045;-27
2023/01/30 14:30:30;;;;;;;1.02;0.95;;;;;;;18.03;37.29;97133.44;10388245;28;20029;-27
2023/01/30 14:35:31;;;;;;;1.27;1.05;;;;;;;18.01;37.23;97147.78;10376711;28;20488;-27
2023/01/30 14:40:34;;;;;;;1.50;1.10;;;;;;;17.99;37.16;97155.34;10393110;28;20095;-27
2023/01/30 14:45:47;;;;;;;1.55;0.75;;;;;;;18.00;37.82;97159.59;10386977;28;20104;-28
2023/01/30 14:50:48;;;;;;;1.10;1.00;;;;;;;18.02;37.50;97169.75;10395265;28;20063;-27
2023/01/30 14:55:59;;;;;;;6.88;1.90;;;;;;;17.91;38.00;97172.19;10396302;28;20511;-27
2023/01/30 15:00:59;;;;;;;2.17;1.15;;;;;;;17.99;37.20;97169.72;10385086;28;20041;-27
2023/01/30 15:06:00;;;;;;;1.98;1.00;;;;;;;18.00;38.04;97189.16;10414248;28;20045;-28
2023/01/30 15:11:10;;;;;;;1.50;0.87;;;;;;;18.02;37.37;97201.00;10400770;28;20034;-27
2023/01/30 15:16:37;;;;;;;2.78;1.00;;;;;;;18.05;37.07;97215.38;10392811;28;20383;-27
2023/01/30 15:21:43;;;;;;;13.10;1.70;;;;;;;18.04;39.73;97221.28;10401900;28;20038;-28
2023/01/30 15:27:12;;;;;;;13.80;2.30;;;;;;;18.06;41.93;97232.25;10402106;28;20098;-27
2023/01/30 15:32:14;;;;;;;6.78;1.50;;;;;;;18.03;39.07;97237.31;10414943;28;20292;-27
2023/01/30 15:37:30;;;;;;;3.67;1.30;;;;;;;17.97;36.48;97248.25;10382621;28;20088;-27
2023/01/30 15:42:30;;;;;;;4.28;1.10;;;;;;;17.92;36.84;97264.22;10408263;28;20033;-28
2023/01/30 15:48:14;;;;;;;3.93;1.67;;;;;;;17.94;36.56;97265.09;10412885;28;20040;-28
2023/01/30 15:53:15;;;;;;;5.82;1.73;;;;;;;17.96;36.86;97261.75;10349815;28;20057;-29
2023/01/30 15:58:19;;;;;;;1.52;1.02;;;;;;;17.99;36.62;97271.91;10397380;28;20049;-27
2023/01/30 16:03:23;;;;;;;1.85;1.52;;;;;;;18.00;36.97;97282.91;10387690;28;20389;-27
2023/01/30 16:08:29;;;;;;;2.97;1.00;;;;;;;18.00;36.59;97287.97;10390963;28;20048;-26
2023/01/30 16:13:31;;;;;;;2.57;2.27;;;;;;;17.99;36.87;97307.38;10410587;28;20519;-28
2023/01/30 16:18:40;;;;;;;6.70;2.30;;;;;;;17.96;37.03;97311.56;10408272;28;20399;-27
2023/01/30 16:23:50;;;;;;;3.15;1.60;;;;;;;17.89;36.92;97324.97;10403656;28;20049;-27
2023/01/30 16:29:00;;;;;;;2.40;1.23;;;;;;;18.06;40.28;97323.47;10409052;28;20076;-27
2023/01/30 16:34:00;;;;;;;2.53;1.73;;;;;;;18.14;40.39;97343.03;10387721;28;20463;-27
2023/01/30 16:39:02;;;;;;;3.42;1.20;;;;;;;18.03;38.03;97331.06;10411901;28;20080;-28
2023/01/30 16:44:18;;;;;;;1.27;1.17;;;;;;;17.92;36.39;97337.69;10395602;28;20065;-28
2023/01/30 16:49:25;;;;;;;2.95;1.83;;;;;;;17.11;36.04;97359.31;10390835;28;20034;-28
2023/01/30 16:54:28;;;;;;;6.00;1.80;;;;;;;17.01;36.95;97365.06;10392414;28;20419;-27
2023/01/30 16:59:33;;;;;;;2.53;1.80;;;;;;;17.43;36.51;97363.22;10380506;28;20092;-28
2023/01/30 17:04:39;;;;;;;2.55;1.67;;;;;;;17.60;36.61;97371.88;10383830;28;20045;-27
2023/01/30 17:09:47;;;;;;;5.53;2.33;;;;;;;17.66;36.80;97387.16;10378688;28;20034;-27
2023/01/30 17:14:47;;;;;;;2.03;1.65;;;;;;;17.63;36.27;97387.09;10374847;28;20124;-27
2023/01/30 17:19:48;;;;;;;2.10;1.90;;;;;;;17.62;36.39;97395.53;10376068;28;20565;-26
2023/01/30 17:24:48;;;;;;;1.93;1.73;;;;;;;17.67;36.77;97411.66;10398301;28;20037;-26
2023/01/30 17:29:48;;;;;;;2.80;2.33;;;;;;;17.65;36.39;97401.50;10389863;28;20038;-26
2023/01/30 17:34:49;;;;;;;2.37;1.90;;;;;;;17.62;36.49;97403.13;10368728;28;20065;-27
2023/01/30 17:39:49;;;;;;;3.47;2.17;;;;;;;17.87;38.61;97413.63;10373913;28;20087;-26
2023/01/30 17:44:50;;;;;;;4.33;2.30;;;;;;;17.94;41.51;97420.50;10387591;28;20061;-27
2023/01/30 17:49:50;;;;;;;4.18;2.80;;;;;;;17.84;36.68;97428.78;10373879;28;20287;-27
2023/01/30 17:54:51;;;;;;;3.88;3.10;;;;;;;17.75;36.75;97426.13;10387739;28;20079;-25
2023/01/30 17:59:51;;;;;;;4.40;2.87;;;;;;;17.64;36.74;97432.72;10377150;28;20025;-26
2023/01/30 18:04:52;;;;;;;3.25;2.65;;;;;;;17.75;36.42;97450.59;10395988;28;20049;-27
2023/01/30 18:09:52;;;;;;;5.07;2.90;;;;;;;17.77;36.69;97448.94;10366321;28;20123;-26
2023/01/30 18:14:52;;;;;;;4.73;2.83;;;;;;;17.72;36.96;97442.94;10373469;28;20100;-26
2023/01/30 18:19:54;;;;;;;2.77;2.47;;;;;;;17.74;36.40;97456.50;10368643;28;20269;-27
2023/01/30 18:24:55;;;;;;;3.05;2.70;;;;;;;17.75;36.33;97464.09;10402479;28;20551;-27
2023/01/30 18:29:55;;;;;;;3.70;2.60;;;;;;;17.72;36.63;97465.75;10400539;28;20029;-26
2023/01/30 18:34:55;;;;;;;3.67;3.03;;;;;;;17.77;36.40;97461.59;10411455;28;20079;-25
2023/01/30 18:39:56;;;;;;;3.43;2.73;;;;;;;17.74;36.53;97471.69;10417340;28;20025;-26
2023/01/30 18:44:56;;;;;;;6.40;2.45;;;;;;;17.80;38.17;97474.31;10386028;28;20041;-28
2023/01/30 18:49:57;;;;;;;4.90;3.10;;;;;;;17.90;37.29;97471.09;10396492;28;20033;-26
2023/01/30 18:54:57;;;;;;;3.43;2.63;;;;;;;18.01;38.45;97462.78;10388951;28;20034;-26
2023/01/30 18:59:57;;;;;;;2.93;2.63;;;;;;;17.87;36.41;97469.38;10387069;28;20092;-25
2023/01/30 19:04:58;;;;;;;3.00;2.70;;;;;;;17.74;36.41;97466.63;10389015;28;20124;-27
2023/01/30 19:09:58;;;;;;;3.57;2.90;;;;;;;17.71;36.39;97472.50;10398477;28;20229;-26
2023/01/30 19:14:58;;;;;;;5.00;2.83;;;;;;;17.74;36.48;97472.53;10382675;28;20046;-26
2023/01/30 19:20:00;;;;;;;2.97;2.42;;;;;;;17.75;36.13;97481.00;10417997;28;20056;-25
2023/01/30 19:25:01;;;;;;;3.50;2.85;;;;;;;17.72;36.50;97488.53;10400448;28;20041;-26
2023/01/30 19:30:02;;;;;;;3.55;3.15;;;;;;;17.72;36.21;97494.47;10388109;28;20038;-27
2023/01/30 19:35:03;;;;;;;5.30;2.97;;;;;;;17.71;36.17;97502.03;10400838;28;20530;-26
2023/01/30 19:40:08;;;;;;;3.08;2.63;;;;;;;17.69;36.48;97513.81;10401636;28;20026;-25
2023/01/30 19:45:09;;;;;;;3.55;2.50;;;;;;;17.69;36.26;97513.81;10387976;28;20041;-25
2023/01/30 19:50:10;;;;;;;4.28;3.30;;;;;;;17.68;36.60;97517.19;10401493;28;20091;-26
2023/01/30 19:55:10;;;;;;;3.03;2.65;;;;;;;17.80;38.10;97523.28;10377577;28;20339;-26
2023/01/30 20:00:11;;;;;;;4.13;2.70;;;;;;;17.93;40.27;97527.69;10399691;28;20076;-26
2023/01/30 20:05:12;;;;;;;3.03;2.45;;;;;;;17.95;37.84;97527.72;10386971;28;20034;-26
2023/01/30 20:10:12;;;;;;;3.33;3.00;;;;;;;17.81;36.75;97534.25;10386615;28;20033;-25
2023/01/30 20:15:13;;;;;;;3.05;2.30;;;;;;;17.74;36.93;97542.63;10391830;28;20952;-28
2023/01/30 20:20:13;;;;;;;2.60;2.33;;;;;;;17.72;36.46;97549.31;10374470;28;20038;-25
2023/01/30 20:25:13;;;;;;;2.93;2.60;;;;;;;17.66;36.65;97539.94;10393198;28;20111;-26
2023/01/30 20:30:14;;;;;;;4.33;2.27;;;;;;;17.72;36.53;97549.31;10392714;28;20496;-26
2023/01/30 20:35:14;;;;;;;2.83;2.38;;;;;;;17.65;36.76;97543.31;10400802;28;20305;-27
2023/01/30 20:40:15;;;;;;;3.05;2.60;;;;;;;17.79;37.32;97566.31;10384242;28;20033;-27
2023/01/30 20:45:15;;;;;;;2.42;2.22;;;;;;;17.77;37.14;97560.38;10385763;28;20038;-27
2023/01/30 20:50:16;;;;;;;3.67;2.37;;;;;;;17.80;37.39;97562.94;10383192;28;20484;-26
2023/01/30 20:55:16;;;;;;;2.97;1.90;;;;;;;17.83;37.51;97570.63;10385432;28;20034;-26
2023/01/30 21:00:17;;;;;;;2.78;2.30;;;;;;;17.83;37.60;97573.16;10390058;28;20029;-26
2023/01/30 21:05:18;;;;;;;1.95;1.67;;;;;;;17.88;38.10;97576.59;10383480;28;20786;-25
2023/01/30 21:10:19;;;;;;;3.13;1.95;;;;;;;17.96;45.21;97580.09;10399337;28;20029;-26
2023/01/30 21:15:19;;;;;;;2.50;1.97;;;;;;;17.94;42.90;97587.69;10390167;28;20550;-26
2023/01/30 21:20:19;;;;;;;2.67;2.30;;;;;;;17.88;37.78;97581.66;10375244;28;20025;-27
2023/01/30 21:25:20;;;;;;;3.70;2.00;;;;;;;17.84;37.95;97600.19;10375094;28;20133;-27
2023/01/30 21:30:20;;;;;;;2.50;2.20;;;;;;;17.80;37.63;97598.41;10394060;28;20080;-26
2023/01/30 21:35:21;;;;;;;2.07;1.87;;;;;;;17.77;37.81;97611.03;10374811;28;20408;-25
2023/01/30 21:45:40;;;;;;;2.88;2.15;;;;;;;17.76;37.45;97625.38;10391964;28;20471;-27
2023/01/30 21:50:41;;;;;;;2.20;1.73;;;;;;;17.68;37.46;97624.38;10403025;28;20087;-28
2023/01/30 21:55:41;;;;;;;2.30;2.10;;;;;;;17.75;37.71;97638.03;10382582;28;20388;-26
2023/01/30 22:00:42;;;;;;;1.67;1.57;;;;;;;17.71;37.20;97649.78;10382571;28;20296;-26
2023/01/30 22:05:44;;;;;;;2.03;1.75;;;;;;;17.75;37.11;97640.56;10378464;28;20038;-26
2023/01/30 22:10:44;;;;;;;3.75;2.05;;;;;;;17.68;36.83;97643.81;10382607;28;20095;-26
2023/01/30 22:15:44;;;;;;;1.90;1.70;;;;;;;17.80;36.95;97660.06;10407344;28;20527;-25
2023/01/30 22:20:45;;;;;;;4.80;2.57;;;;;;;17.91;44.52;97662.81;10397706;28;20041;-26
2023/01/30 22:25:53;;;;;;;4.15;2.72;;;;;;;17.93;39.95;97664.50;10405500;28;20515;-26
2023/01/30 22:31:04;;;;;;;2.28;1.70;;;;;;;17.82;36.99;97662.66;10412040;28;20026;-26
2023/01/30 22:36:06;;;;;;;3.22;2.00;;;;;;;17.75;37.19;97668.41;10398823;28;20242;-26
2023/01/30 22:41:14;;;;;;;2.30;1.92;;;;;;;17.74;37.40;97664.19;10385870;28;20030;-25
2023/01/30 22:46:16;;;;;;;3.47;1.73;;;;;;;17.74;37.17;97669.25;10367722;28;20041;-26
2023/01/30 22:51:18;;;;;;;1.60;1.45;;;;;;;17.71;36.94;97674.25;10367833;28;20101;-26
2023/01/30 22:56:24;;;;;;;1.67;1.30;;;;;;;17.71;36.83;97679.31;10367409;28;20042;-26
2023/01/30 23:01:29;;;;;;;2.08;1.60;;;;;;;17.69;36.55;97680.97;10372548;28;20034;-26
2023/01/30 23:06:32;;;;;;;1.65;1.35;;;;;;;17.68;36.37;97684.31;10377022;28;20046;-26
2023/01/30 23:11:39;;;;;;;1.40;1.30;;;;;;;17.64;36.56;97680.00;10374293;28;20030;-26
2023/01/30 23:16:41;;;;;;;5.78;1.58;;;;;;;17.66;36.21;97670.78;10367744;28;20033;-26
2023/01/30 23:21:43;;;;;;;2.03;1.65;;;;;;;17.64;36.60;97668.22;10368225;28;20041;-26
2023/01/30 23:26:48;;;;;;;3.65;1.48;;;;;;;17.73;36.76;97672.63;10374731;28;20033;-27
2023/01/30 23:31:48;;;;;;;7.50;2.78;;;;;;;17.80;45.93;97669.34;10376926;28;20038;-26
2023/01/30 23:36:49;;;;;;;2.23;1.43;;;;;;;17.75;45.50;97661.66;10384521;28;20403;-26
2023/01/30 23:41:50;;;;;;;1.97;1.60;;;;;;;17.72;37.48;97655.69;10374074;28;20550;-26
2023/01/30 23:46:51;;;;;;;2.10;1.58;;;;;;;17.67;36.76;97652.22;10373215;28;20034;-26